Fort Myers, FL (33901)

9:33 AM EDT on July 24, 2016 (GMT -0400)
McGregor Blvd. Circa1924 | | Change Station

Elev 20 ft 26.63 °N, 81.88 °W | Updated 19 seconds ago

Clear
Clear
79.9 °F
Feels Like 85 °F
N
1.1
Wind Variable Wind from West
Gusts 1.1 mph

Today
High -- | Low -- °F
--% Chance of Precip.
Yesterday
High -- | Low -- °F
Precip. -- in
Pressure 30.06 in
Visibility 10.0 miles
Clouds Clear
Heat Index 85 °F
Dew Point 75 °F
Humidity 84%
Rainfall 0.87 in
Snow Depth Not available.
6:48 AM 8:19 PM
Waning Gibbous, 76% visible
METAR KFMY 241253Z 00000KT 10SM CLR 26/23 A3005 RMK AO2 SLP179 T02610228
Pressure 30.06 in
Visibility 10.0 miles
Clouds Clear
Heat Index 85 °F
Dew Point 75 °F
Humidity 84%
Rainfall 0.87 in
Snow Depth Not available.
6:48 AM 8:19 PM
Waning Gibbous, 76% visible
METAR KFMY 241253Z 00000KT 10SM CLR 26/23 A3005 RMK AO2 SLP179 T02610228

10-Day Weather Forecast

Almanac

Astronomy

Jul. 24, 2016 Rise Set
Actual Time
Civil Twilight
Nautical Twilight
Astronomical Twilight
Moon
Length of Visible Light
Length of Day
Tomorrow will be .
, % of the Moon is Illuminated

Today's Extremes

State Highs State Lows

Community

WunderPhotos

Upload Photos

1,927,057 photos uploaded!

WunderBlog® & News

Nearby

Air Quality

  Air Quality AQ Index Pollutant
Not available.

Snow Depth

Station Depth Elevation

Earthquake Activity

City Distance Mag. Time & Date
Minimum magnitude displayed is 2.5.

Coastal Water Temperatures

Place Temperature

Stations

Nearby Weather Stations

Station Location Temp. Windchill Dew Point Humidity Wind Precip. Elev Updated Type
                   

Watches & Warnings

There are currently no watches in effect.